Time;durP1;ratioP1;P1;durP2;ratioP2;P2;SDS_P1;SDS_P2;PMS_P1;PMS_P2;Temp;Humidity;BMP_temperature;BMP_pressure;BME280_temperature;BME280_humidity;BME280_pressure;Samples;Min_cycle;Max_cycle;Signal;HPM_P1;HPM_P2
2024/01/04 00:03:57;;;;;;;1.17;0.20;;;;;;;9.28;100.00;98187.13;10341417;28;20575;-63
2024/01/04 00:08:58;;;;;;;1.88;0.10;;;;;;;9.34;100.00;98187.25;10364785;28;20132;-64
2024/01/04 00:14:05;;;;;;;2.45;0.20;;;;;;;9.40;100.00;98193.75;10326817;28;20107;-63
2024/01/04 00:19:06;;;;;;;1.48;0.30;;;;;;;9.40;100.00;98180.47;10331941;28;20975;-62
2024/01/04 00:24:08;;;;;;;0.85;0.10;;;;;;;9.32;100.00;98181.31;10324939;28;20045;-63
2024/01/04 00:29:09;;;;;;;2.65;0.20;;;;;;;9.38;100.00;98183.28;10326265;28;20054;-64
2024/01/04 00:34:11;;;;;;;0.85;0.08;;;;;;;9.42;100.00;98196.22;10325256;28;20133;-63
2024/01/04 00:39:13;;;;;;;1.67;0.20;;;;;;;9.43;100.00;98209.34;10338225;28;20057;-64
2024/01/04 00:44:14;;;;;;;1.33;0.10;;;;;;;9.42;99.76;98204.19;10352227;28;20168;-64
2024/01/04 00:49:16;;;;;;;0.52;0.10;;;;;;;9.43;99.03;98203.19;10332455;28;20120;-63
2024/01/04 00:54:17;;;;;;;0.80;0.10;;;;;;;9.41;97.59;98198.03;10333104;28;20423;-63
2024/01/04 00:59:19;;;;;;;0.47;0.10;;;;;;;9.42;97.96;98199.69;10336626;28;20057;-64
2024/01/04 01:04:20;;;;;;;1.00;0.20;;;;;;;9.40;96.95;98196.41;10330986;28;20049;-63
2024/01/04 01:09:22;;;;;;;0.55;0.10;;;;;;;9.35;96.88;98215.47;10326278;28;20839;-63
2024/01/04 01:14:23;;;;;;;0.85;0.00;;;;;;;9.29;95.22;98212.66;10330379;28;20109;-64
2024/01/04 01:19:24;;;;;;;0.95;0.10;;;;;;;9.37;95.95;98231.25;10326645;28;20072;-63
2024/01/04 01:24:26;;;;;;;0.95;0.15;;;;;;;9.45;95.73;98246.34;10329600;28;20685;-64
2024/01/04 01:29:27;;;;;;;0.45;0.00;;;;;;;9.37;95.68;98255.16;10327823;28;20077;-64
2024/01/04 01:34:29;;;;;;;2.95;0.15;;;;;;;9.31;94.94;98250.50;10327670;28;20061;-64
2024/01/04 01:39:30;;;;;;;0.95;0.00;;;;;;;9.36;95.53;98269.41;10330738;28;20065;-63
2024/01/04 01:44:32;;;;;;;0.28;0.10;;;;;;;9.39;95.00;98269.09;10357404;28;20057;-64
2024/01/04 01:49:33;;;;;;;0.90;0.20;;;;;;;9.43;95.04;98272.22;10327372;28;20054;-64
2024/01/04 01:54:35;;;;;;;0.32;0.10;;;;;;;9.38;94.45;98280.69;10331878;28;20121;-63
2024/01/04 01:59:37;;;;;;;1.05;0.10;;;;;;;9.39;94.27;98311.56;10357957;28;20054;-64
2024/01/04 02:04:39;;;;;;;0.35;0.00;;;;;;;9.42;94.51;98326.34;10327851;28;20065;-64
2024/01/04 02:09:41;;;;;;;0.10;0.00;;;;;;;9.41;95.46;98325.50;10328097;28;20054;-64
2024/01/04 02:14:43;;;;;;;0.32;0.00;;;;;;;9.37;96.63;98318.88;10328077;28;20194;-64
2024/01/04 02:19:46;;;;;;;1.05;0.10;;;;;;;9.39;98.33;98306.25;10330841;28;20056;-65
2024/01/04 02:24:48;;;;;;;0.73;0.35;;;;;;;9.25;96.68;98305.06;10329318;28;20200;-63
2024/01/04 02:29:49;;;;;;;0.30;0.00;;;;;;;9.40;96.67;98341.59;10322053;28;20816;-64
2024/01/04 02:34:50;;;;;;;0.13;0.00;;;;;;;9.41;96.33;98356.53;10322509;28;20060;-64
2024/01/04 02:39:52;;;;;;;0.20;0.00;;;;;;;9.37;95.91;98358.72;10328604;28;20081;-63
2024/01/04 02:44:53;;;;;;;0.13;0.00;;;;;;;9.49;94.88;98372.50;10323487;28;20136;-63
2024/01/04 02:49:55;;;;;;;0.32;0.00;;;;;;;9.54;95.75;98386.13;10345716;28;20049;-63
2024/01/04 02:54:56;;;;;;;0.20;0.00;;;;;;;9.54;94.92;98402.06;10324128;28;20257;-64
2024/01/04 02:59:58;;;;;;;0.85;0.00;;;;;;;9.48;96.22;98406.19;10323046;28;20050;-63
2024/01/04 03:04:59;;;;;;;0.30;0.00;;;;;;;9.54;97.19;98420.66;10322310;28;20050;-63
2024/01/04 03:10:01;;;;;;;0.82;0.00;;;;;;;9.57;97.30;98419.50;10346664;28;20518;-63
2024/01/04 03:15:03;;;;;;;0.30;0.00;;;;;;;9.56;97.77;98426.63;10325556;28;20160;-64
2024/01/04 03:20:05;;;;;;;0.20;0.00;;;;;;;9.60;98.93;98438.59;10323230;28;20074;-64
2024/01/04 03:25:09;;;;;;;0.20;0.00;;;;;;;9.67;99.68;98431.66;10325556;28;20127;-64
2024/01/04 03:30:11;;;;;;;0.47;0.00;;;;;;;9.71;99.46;98440.13;10323062;28;20148;-67
2024/01/04 03:35:13;;;;;;;0.30;0.00;;;;;;;9.73;99.47;98448.78;10327553;28;20050;-64
2024/01/04 03:40:14;;;;;;;0.60;0.10;;;;;;;9.68;99.04;98459.03;10322495;28;20053;-64
2024/01/04 03:45:16;;;;;;;0.10;0.00;;;;;;;9.63;99.04;98456.06;10325454;28;20191;-65
2024/01/04 03:50:18;;;;;;;0.68;0.13;;;;;;;9.59;98.87;98460.00;10327612;28;20089;-65
2024/01/04 03:55:19;;;;;;;0.20;0.00;;;;;;;9.61;98.75;98465.97;10325845;28;20041;-64
2024/01/04 04:00:21;;;;;;;1.77;0.20;;;;;;;9.74;97.76;98490.28;10323736;28;20061;-64
2024/01/04 04:05:22;;;;;;;0.38;0.10;;;;;;;9.72;96.30;98492.28;10343558;28;20137;-63
2024/01/04 04:10:25;;;;;;;0.60;0.13;;;;;;;9.66;95.47;98501.72;10322632;28;20119;-64
2024/01/04 04:15:26;;;;;;;0.40;0.00;;;;;;;9.54;95.15;98517.09;10323395;28;20125;-63
2024/01/04 04:20:28;;;;;;;1.95;0.38;;;;;;;9.60;95.21;98525.44;10350374;28;20574;-64
2024/01/04 04:25:29;;;;;;;0.25;0.00;;;;;;;9.63;93.88;98531.25;10326185;28;20123;-63
2024/01/04 04:30:31;;;;;;;1.27;0.00;;;;;;;9.59;92.57;98526.41;10320981;28;20058;-63
2024/01/04 04:35:32;;;;;;;0.25;0.00;;;;;;;9.65;92.53;98533.75;10325497;28;20046;-63
2024/01/04 04:40:47;;;;;;;0.32;0.00;;;;;;;9.51;92.34;98528.03;10341854;28;20033;-64
2024/01/04 04:45:48;;;;;;;0.80;0.10;;;;;;;9.61;91.77;98553.66;10341910;28;20597;-63
2024/01/04 04:50:50;;;;;;;0.40;0.20;;;;;;;9.60;91.75;98559.97;10321266;28;20065;-64
2024/01/04 04:55:51;;;;;;;2.05;0.05;;;;;;;9.47;92.33;98536.50;10321706;28;20062;-63
2024/01/04 05:00:54;;;;;;;0.95;0.00;;;;;;;9.61;92.29;98570.44;10321250;28;20111;-63
2024/01/04 05:05:55;;;;;;;0.85;0.10;;;;;;;9.64;91.52;98564.81;10315768;28;20060;-63
2024/01/04 05:10:57;;;;;;;1.17;0.63;;;;;;;9.60;92.05;98583.88;10321494;28;20120;-64
2024/01/04 05:15:59;;;;;;;1.45;0.00;;;;;;;9.55;93.03;98585.19;10319552;28;20057;-63
2024/01/04 05:21:00;;;;;;;0.55;0.10;;;;;;;9.61;93.09;98609.44;10327030;28;20134;-64
2024/01/04 05:26:03;;;;;;;0.75;0.20;;;;;;;9.63;93.56;98610.13;10353453;28;20133;-64
2024/01/04 05:31:04;;;;;;;1.50;0.20;;;;;;;9.41;92.86;98590.25;10329462;28;20066;-63
2024/01/04 05:36:06;;;;;;;0.10;0.00;;;;;;;9.47;92.89;98605.53;10327051;28;20082;-63
2024/01/04 05:41:08;;;;;;;0.47;0.00;;;;;;;9.73;92.83;98648.06;10327650;28;20050;-64
2024/01/04 05:46:09;;;;;;;0.40;0.00;;;;;;;9.66;92.36;98652.31;10328990;28;20168;-63
2024/01/04 05:51:11;;;;;;;0.60;0.00;;;;;;;9.70;93.02;98659.00;10328919;28;20093;-64
2024/01/04 05:56:12;;;;;;;0.82;0.10;;;;;;;9.67;92.43;98659.31;10324936;28;20065;-64
2024/01/04 06:01:14;;;;;;;1.00;0.10;;;;;;;9.65;93.06;98669.25;10327126;28;20110;-64
2024/01/04 06:06:18;;;;;;;1.52;0.00;;;;;;;9.72;93.31;98672.94;10324293;28;20057;-64
2024/01/04 06:11:19;;;;;;;0.10;0.00;;;;;;;9.65;92.29;98682.53;10326325;28;20056;-62
2024/01/04 06:16:20;;;;;;;0.03;0.00;;;;;;;9.57;93.09;98695.78;10324294;28;20212;-63
2024/01/04 06:21:22;;;;;;;0.32;0.00;;;;;;;9.58;92.83;98708.91;10326657;28;20121;-63
2024/01/04 06:26:24;;;;;;;1.05;0.00;;;;;;;9.61;92.75;98713.03;10325965;28;20387;-63
2024/01/04 06:31:26;;;;;;;2.30;0.10;;;;;;;9.58;91.93;98721.31;10327052;28;20666;-65
2024/01/04 06:36:27;;;;;;;0.60;0.10;;;;;;;9.68;92.08;98719.41;10322389;28;20153;-64
2024/01/04 06:41:30;;;;;;;1.10;0.15;;;;;;;9.62;91.28;98717.38;10323000;28;20054;-63
2024/01/04 06:46:31;;;;;;;1.27;0.03;;;;;;;9.60;91.00;98730.81;10323655;28;20065;-63
2024/01/04 06:51:32;;;;;;;0.63;0.03;;;;;;;9.70;91.64;98744.84;10341675;28;20060;-63
2024/01/04 06:56:34;;;;;;;1.63;0.10;;;;;;;9.78;94.47;98761.84;10324649;28;20696;-63
2024/01/04 07:01:36;;;;;;;0.65;0.10;;;;;;;9.79;96.29;98798.03;10324164;28;20132;-64
2024/01/04 07:06:37;;;;;;;1.23;0.10;;;;;;;9.58;97.44;98793.06;10321715;28;20651;-63
2024/01/04 07:11:39;;;;;;;0.40;0.03;;;;;;;9.63;98.69;98780.16;10313409;28;20060;-64
2024/01/04 07:16:45;;;;;;;1.55;0.10;;;;;;;9.70;98.35;98787.34;10353419;28;20064;-64
2024/01/04 07:21:47;;;;;;;0.90;0.10;;;;;;;9.79;96.73;98806.88;10320171;28;20068;-63
2024/01/04 07:26:49;;;;;;;0.40;0.05;;;;;;;9.71;94.72;98802.31;10329718;28;20049;-64
2024/01/04 07:31:50;;;;;;;0.20;0.00;;;;;;;9.62;94.73;98805.06;10322643;28;20054;-64
2024/01/04 07:36:51;;;;;;;1.50;0.10;;;;;;;9.58;93.92;98814.31;10321212;28;20064;-64
2024/01/04 07:41:55;;;;;;;0.90;0.20;;;;;;;9.55;94.10;98812.81;10320657;28;20092;-64
2024/01/04 07:46:57;;;;;;;1.73;0.10;;;;;;;9.57;93.75;98812.66;10351140;28;20765;-63
2024/01/04 07:51:58;;;;;;;0.75;0.10;;;;;;;9.58;92.51;98825.78;10323724;28;20052;-64
2024/01/04 07:57:00;;;;;;;0.75;0.10;;;;;;;9.61;91.53;98832.59;10316268;28;20129;-64
2024/01/04 08:02:02;;;;;;;0.35;0.00;;;;;;;9.58;90.43;98840.88;10324455;28;20144;-63
2024/01/04 08:07:03;;;;;;;1.50;0.20;;;;;;;9.53;90.22;98849.28;10322694;28;20058;-63
2024/01/04 08:12:05;;;;;;;1.33;0.10;;;;;;;9.53;90.15;98855.47;10350027;28;21066;-64
2024/01/04 08:17:07;;;;;;;0.20;0.00;;;;;;;9.50;91.43;98865.53;10320143;28;20171;-64
2024/01/04 08:22:08;;;;;;;0.38;0.10;;;;;;;9.47;92.09;98866.69;10320997;28;20500;-63
2024/01/04 08:27:09;;;;;;;0.57;0.17;;;;;;;9.48;92.56;98881.63;10320947;28;20566;-63
2024/01/04 08:32:11;;;;;;;1.65;0.13;;;;;;;9.54;93.53;98878.38;10337714;28;20212;-64
2024/01/04 08:37:14;;;;;;;0.65;0.10;;;;;;;9.62;92.71;98884.75;10323828;28;20083;-63
2024/01/04 08:42:15;;;;;;;0.80;0.15;;;;;;;9.55;91.49;98885.34;10320073;28;20590;-63
2024/01/04 08:47:21;;;;;;;0.70;0.20;;;;;;;9.54;91.08;98878.38;10322082;28;20607;-64
2024/01/04 08:52:23;;;;;;;0.60;0.10;;;;;;;9.58;90.63;98889.53;10332669;28;20067;-64
2024/01/04 08:57:24;;;;;;;1.13;0.20;;;;;;;9.67;91.39;98907.22;10342190;28;20056;-63
2024/01/04 09:02:27;;;;;;;0.88;0.20;;;;;;;9.68;91.32;98908.06;10331853;28;20046;-64
2024/01/04 09:07:28;;;;;;;0.50;0.20;;;;;;;9.68;89.52;98916.88;10327171;28;20064;-63
2024/01/04 09:12:30;;;;;;;1.25;0.40;;;;;;;9.62;89.38;98909.50;10328304;28;20088;-64
2024/01/04 09:17:32;;;;;;;0.65;0.50;;;;;;;9.58;89.26;98902.81;10330282;28;20127;-65
2024/01/04 09:22:33;;;;;;;0.55;0.30;;;;;;;9.71;88.45;98935.19;10330855;28;20137;-63
2024/01/04 09:27:35;;;;;;;0.75;0.10;;;;;;;9.76;89.33;98944.50;10349516;28;20921;-63
2024/01/04 09:32:36;;;;;;;1.58;0.30;;;;;;;9.67;88.91;98957.72;10326557;28;20182;-65
2024/01/04 09:37:39;;;;;;;0.70;0.10;;;;;;;9.71;89.50;98968.88;10359705;28;20741;-63
2024/01/04 09:42:40;;;;;;;0.65;0.20;;;;;;;9.74;89.26;98973.88;10324205;28;20709;-62
2024/01/04 09:47:42;;;;;;;0.60;0.10;;;;;;;9.66;91.13;98982.59;10328015;28;20054;-63
2024/01/04 09:52:45;;;;;;;0.70;0.25;;;;;;;9.68;92.78;98998.41;10329503;28;20085;-63
2024/01/04 09:57:47;;;;;;;0.30;0.03;;;;;;;9.59;92.46;99009.91;10335509;28;20171;-63
2024/01/04 10:02:49;;;;;;;0.57;0.10;;;;;;;9.56;94.00;99008.38;10329294;28;20100;-63
2024/01/04 10:08:23;;;;;;;0.85;0.20;;;;;;;9.58;94.08;99010.91;10327165;28;20057;-63
2024/01/04 10:13:25;;;;;;;0.03;0.00;;;;;;;9.68;95.03;99009.03;10329794;28;20103;-63
2024/01/04 10:18:29;;;;;;;0.88;0.40;;;;;;;9.65;94.81;99017.28;10325609;28;20541;-63
2024/01/04 10:23:31;;;;;;;0.75;0.05;;;;;;;9.68;93.49;99011.69;10326415;28;21745;-63
2024/01/04 10:28:35;;;;;;;0.30;0.10;;;;;;;9.83;94.75;99006.72;10358818;28;20054;-63
2024/01/04 10:33:37;;;;;;;0.43;0.10;;;;;;;9.79;93.38;99002.66;10331219;28;20057;-63
2024/01/04 10:38:42;;;;;;;1.05;0.10;;;;;;;9.89;93.95;98999.00;10354648;28;20057;-63
2024/01/04 10:43:43;;;;;;;0.47;0.10;;;;;;;10.03;92.68;99021.56;10323761;28;20152;-63
2024/01/04 10:48:45;;;;;;;0.80;0.50;;;;;;;10.11;90.78;99017.31;10331538;28;20774;-64
2024/01/04 10:53:49;;;;;;;0.70;0.10;;;;;;;10.06;90.91;99017.78;10341045;28;20046;-63
2024/01/04 10:58:52;;;;;;;0.35;0.10;;;;;;;9.88;89.05;99047.81;10345865;28;20053;-65
2024/01/04 11:03:55;;;;;;;0.43;0.00;;;;;;;9.89;88.85;99038.00;10328787;28;20077;-62
2024/01/04 11:08:57;;;;;;;0.63;0.10;;;;;;;9.83;87.38;99033.28;10352703;28;20050;-63
2024/01/04 11:13:59;;;;;;;1.35;0.10;;;;;;;9.85;87.56;99029.50;10330301;28;20050;-62
2024/01/04 11:19:22;;;;;;;0.30;0.05;;;;;;;9.90;88.47;99042.34;10326782;28;20140;-63
2024/01/04 11:24:43;;;;;;;0.30;0.10;;;;;;;10.01;87.13;99028.00;10347812;28;20053;-63
2024/01/04 11:29:47;;;;;;;1.38;0.20;;;;;;;10.22;86.30;99017.94;10346062;28;20052;-63
2024/01/04 11:34:49;;;;;;;1.38;0.43;;;;;;;10.32;84.17;99025.00;10323587;28;20060;-64
2024/01/04 11:40:05;;;;;;;1.70;0.20;;;;;;;10.18;83.19;99007.75;10330249;28;20128;-63
2024/01/04 11:45:14;;;;;;;3.75;0.45;;;;;;;10.26;83.22;99019.28;10328083;28;20546;-63
2024/01/04 11:50:21;;;;;;;3.28;1.27;;;;;;;10.26;83.56;99005.97;10364367;28;20060;-62
2024/01/04 11:55:25;;;;;;;2.35;1.00;;;;;;;10.29;83.17;99012.00;10324456;28;20092;-64
2024/01/04 12:00:32;;;;;;;3.40;0.88;;;;;;;10.21;81.06;99000.28;10337120;28;20054;-63
2024/01/04 12:05:34;;;;;;;2.63;0.60;;;;;;;10.42;80.79;99021.28;10321282;28;20065;-63
2024/01/04 12:10:36;;;;;;;2.22;0.60;;;;;;;10.43;81.19;99017.66;10327867;28;20058;-63
2024/01/04 12:15:37;;;;;;;2.85;0.50;;;;;;;10.57;79.32;99010.94;10321823;28;20501;-63
2024/01/04 12:20:39;;;;;;;3.47;0.80;;;;;;;11.10;77.53;99008.31;10322380;28;21018;-63
2024/01/04 12:25:41;;;;;;;2.58;0.80;;;;;;;11.18;75.60;99004.88;10319926;28;20133;-63
2024/01/04 12:30:43;;;;;;;4.22;0.77;;;;;;;11.76;70.24;99014.78;10328461;28;20053;-63
2024/01/04 12:35:44;;;;;;;1.98;1.02;;;;;;;11.41;68.94;99014.00;10335636;28;20045;-63
2024/01/04 12:40:46;;;;;;;4.18;1.48;;;;;;;11.13;68.97;99021.31;10335311;28;20054;-63
2024/01/04 12:45:49;;;;;;;4.47;0.85;;;;;;;11.06;67.33;99014.94;10334278;28;20078;-64
2024/01/04 12:50:51;;;;;;;7.30;1.30;;;;;;;11.84;65.05;99024.63;10336254;28;20042;-64
2024/01/04 12:55:52;;;;;;;3.88;1.00;;;;;;;13.12;59.06;99042.13;10333824;28;20058;-63
2024/01/04 13:00:54;;;;;;;3.72;0.80;;;;;;;15.20;51.75;99015.69;10331370;28;20125;-64
2024/01/04 13:05:55;;;;;;;3.65;1.25;;;;;;;15.53;48.69;99005.41;10333406;28;20053;-64
2024/01/04 13:10:57;;;;;;;2.33;0.90;;;;;;;14.02;51.19;99000.88;10334659;28;20064;-64
2024/01/04 13:15:58;;;;;;;4.05;1.10;;;;;;;12.35;55.13;99020.09;10331688;28;20431;-63
2024/01/04 13:20:59;;;;;;;3.42;0.85;;;;;;;12.53;57.14;99035.97;10327660;28;20073;-63
2024/01/04 13:26:02;;;;;;;3.17;1.00;;;;;;;14.93;50.62;99033.22;10335594;28;20049;-63
2024/01/04 13:31:04;;;;;;;3.42;0.82;;;;;;;16.31;48.48;99036.31;10334339;28;20041;-63
2024/01/04 13:36:06;;;;;;;4.82;1.00;;;;;;;16.56;46.17;99026.03;10336300;28;20053;-64
2024/01/04 13:41:07;;;;;;;2.95;0.90;;;;;;;17.56;44.90;99036.72;10332694;28;20137;-64
2024/01/04 13:46:09;;;;;;;4.13;0.80;;;;;;;17.36;42.81;99047.38;10329308;28;20107;-63
2024/01/04 13:51:10;;;;;;;4.60;0.85;;;;;;;17.04;44.16;99054.97;10322959;28;20152;-63
2024/01/04 13:56:12;;;;;;;4.20;1.20;;;;;;;15.63;47.07;99053.44;10328161;28;20558;-63
2024/01/04 14:01:13;;;;;;;4.10;1.02;;;;;;;13.70;52.08;99074.94;10329180;28;20050;-64
2024/01/04 14:06:15;;;;;;;4.25;1.05;;;;;;;13.25;54.91;99069.16;10331691;28;20061;-64
2024/01/04 14:11:17;;;;;;;5.65;1.75;;;;;;;12.64;57.41;99080.22;10326980;28;20133;-63
2024/01/04 14:16:19;;;;;;;6.53;0.98;;;;;;;12.15;58.86;99064.94;10327053;28;20046;-63
2024/01/04 14:21:21;;;;;;;5.57;0.90;;;;;;;12.00;59.58;99102.06;10328710;28;20105;-63
2024/01/04 14:26:23;;;;;;;3.75;1.30;;;;;;;11.83;61.25;99109.13;10349744;28;20512;-63
2024/01/04 14:31:27;;;;;;;4.20;1.25;;;;;;;11.77;61.91;99111.59;10330418;28;20586;-64
2024/01/04 14:36:29;;;;;;;5.47;1.52;;;;;;;11.76;61.63;99120.59;10332623;28;20045;-63
2024/01/04 14:41:31;;;;;;;2.80;0.88;;;;;;;11.67;62.08;99130.38;10327759;28;22699;-62
2024/01/04 14:46:32;;;;;;;8.18;2.22;;;;;;;11.38;61.34;99136.88;10332557;28;20146;-62
2024/01/04 14:51:33;;;;;;;6.18;1.20;;;;;;;11.29;62.19;99135.16;10355637;28;20115;-62
2024/01/04 14:56:36;;;;;;;6.65;1.05;;;;;;;11.21;61.42;99135.06;10339406;28;20050;-63
2024/01/04 15:01:39;;;;;;;5.90;0.77;;;;;;;11.22;62.21;99150.06;10331626;28;21307;-63
2024/01/04 15:06:40;;;;;;;4.45;0.82;;;;;;;11.17;63.14;99150.53;10336254;28;20101;-63
2024/01/04 15:11:43;;;;;;;5.38;2.03;;;;;;;11.01;63.80;99164.53;10323774;28;20050;-63
2024/01/04 15:16:45;;;;;;;5.10;1.20;;;;;;;10.81;64.61;99158.53;10318921;28;20041;-62
2024/01/04 15:21:46;;;;;;;4.45;1.83;;;;;;;10.81;65.70;99174.50;10315805;28;20060;-63
2024/01/04 15:26:48;;;;;;;7.60;1.20;;;;;;;10.73;65.81;99177.06;10328054;28;20119;-64
2024/01/04 15:31:49;;;;;;;6.50;1.70;;;;;;;10.59;66.04;99165.97;10324802;28;20061;-63
2024/01/04 15:36:51;;;;;;;5.03;1.50;;;;;;;10.32;67.14;99176.63;10328595;28;20151;-64
2024/01/04 15:41:54;;;;;;;4.60;1.80;;;;;;;10.18;67.58;99177.94;10320311;28;20580;-63
2024/01/04 15:46:56;;;;;;;3.33;0.80;;;;;;;9.94;68.28;99163.34;10335724;28;20049;-63
2024/01/04 15:52:00;;;;;;;2.17;0.57;;;;;;;10.14;68.52;99188.03;10324252;28;20132;-64
2024/01/04 15:57:02;;;;;;;3.35;1.00;;;;;;;10.05;68.29;99187.06;10321957;28;20061;-63
2024/01/04 16:02:03;;;;;;;4.53;1.33;;;;;;;10.00;68.98;99185.84;10320738;28;20051;-63
2024/01/04 16:07:05;;;;;;;4.68;1.08;;;;;;;9.83;69.35;99160.84;10318750;28;20292;-64
2024/01/04 16:12:07;;;;;;;3.63;0.93;;;;;;;10.00;69.19;99199.16;10345671;28;20050;-63
2024/01/04 16:17:09;;;;;;;3.58;1.30;;;;;;;10.03;69.31;99194.38;10320960;28;20500;-63
2024/01/04 16:22:10;;;;;;;5.32;1.92;;;;;;;10.02;69.26;99200.66;10322065;28;20049;-63
2024/01/04 16:27:12;;;;;;;6.40;2.75;;;;;;;9.94;69.13;99202.38;10324398;28;20531;-63
2024/01/04 16:32:14;;;;;;;5.32;1.67;;;;;;;9.82;70.08;99199.91;10324221;28;20567;-64
2024/01/04 16:37:16;;;;;;;4.07;1.40;;;;;;;9.77;70.86;99202.13;10326617;28;21071;-63
2024/01/04 16:42:17;;;;;;;3.88;1.38;;;;;;;9.72;71.33;99207.88;10352253;28;20070;-63
2024/01/04 16:47:20;;;;;;;7.30;2.88;;;;;;;9.74;71.70;99197.09;10323464;28;20054;-63
2024/01/04 16:52:21;;;;;;;6.13;2.60;;;;;;;9.71;72.22;99208.88;10339819;28;20086;-64
2024/01/04 16:57:23;;;;;;;7.93;2.72;;;;;;;9.71;72.94;99203.56;10344385;28;22472;-63
2024/01/04 17:02:25;;;;;;;7.03;1.95;;;;;;;9.69;73.35;99199.38;10318385;28;20049;-62
2024/01/04 17:07:27;;;;;;;7.10;1.98;;;;;;;9.65;73.79;99197.97;10321427;28;20052;-63
2024/01/04 17:12:28;;;;;;;6.80;3.03;;;;;;;9.57;74.64;99196.03;10340847;28;20071;-63
2024/01/04 17:17:30;;;;;;;9.02;3.72;;;;;;;9.62;74.68;99195.59;10326425;28;20144;-63
2024/01/04 17:22:32;;;;;;;7.35;3.30;;;;;;;9.57;75.23;99196.03;10332691;28;20511;-63
2024/01/04 17:27:33;;;;;;;7.38;2.10;;;;;;;9.51;75.60;99197.44;10328542;28;20128;-63
2024/01/04 17:32:35;;;;;;;5.07;1.95;;;;;;;9.44;75.67;99195.50;10328993;28;20050;-63
2024/01/04 17:37:38;;;;;;;6.72;2.15;;;;;;;9.41;75.69;99196.63;10347281;28;20536;-64
2024/01/04 17:42:39;;;;;;;9.40;2.90;;;;;;;9.43;75.80;99188.50;10343271;28;20095;-62
2024/01/04 17:47:44;;;;;;;4.50;1.70;;;;;;;9.47;75.51;99190.75;10327666;28;20062;-63
2024/01/04 17:52:46;;;;;;;8.82;5.80;;;;;;;9.43;75.21;99199.13;10327968;28;20053;-63
2024/01/04 17:57:48;;;;;;;8.02;2.88;;;;;;;9.44;74.97;99185.69;10327950;28;20046;-62
2024/01/04 18:02:49;;;;;;;5.50;1.50;;;;;;;9.44;74.45;99196.31;10331122;28;20049;-63
2024/01/04 18:07:51;;;;;;;6.65;2.50;;;;;;;9.46;74.64;99199.69;10331508;28;20451;-63
2024/01/04 18:12:52;;;;;;;8.63;6.32;;;;;;;9.51;75.19;99208.06;10328327;28;20136;-64
2024/01/04 18:17:53;;;;;;;41.42;31.63;;;;;;;9.48;75.22;99213.66;10329396;28;20084;-62
2024/01/04 18:22:55;;;;;;;10.43;4.50;;;;;;;9.47;76.20;99216.47;10327669;28;20060;-62
2024/01/04 18:27:56;;;;;;;52.53;42.17;;;;;;;9.45;76.36;99213.94;10326698;28;20180;-63
2024/01/04 18:32:59;;;;;;;8.00;4.35;;;;;;;9.35;77.19;99218.44;10331511;28;20121;-62
2024/01/04 18:38:02;;;;;;;38.90;29.58;;;;;;;9.32;77.74;99221.38;10329516;28;20136;-64
2024/01/04 18:43:04;;;;;;;14.48;7.25;;;;;;;9.25;78.56;99225.56;10323662;28;20069;-64
2024/01/04 18:48:05;;;;;;;8.40;3.40;;;;;;;9.18;78.76;99225.28;10323019;28;20793;-63
2024/01/04 18:53:07;;;;;;;9.38;4.38;;;;;;;9.27;78.91;99232.41;10324244;28;20049;-64
2024/01/04 18:58:08;;;;;;;24.58;19.05;;;;;;;9.24;78.84;99234.53;10323329;28;20060;-63
2024/01/04 19:03:10;;;;;;;18.95;11.55;;;;;;;9.27;79.76;99236.91;10324605;28;20484;-63
2024/01/04 19:08:12;;;;;;;6.78;3.90;;;;;;;9.29;80.10;99237.59;10323731;28;20222;-62
2024/01/04 19:13:13;;;;;;;9.25;4.20;;;;;;;9.23;80.68;99224.88;10322152;28;20129;-64
2024/01/04 19:18:15;;;;;;;10.57;3.03;;;;;;;9.19;81.45;99225.16;10327292;28;20063;-62
2024/01/04 19:23:17;;;;;;;9.52;2.92;;;;;;;9.13;82.14;99223.06;10321919;28;20136;-63
2024/01/04 19:28:21;;;;;;;8.05;2.88;;;;;;;9.15;82.65;99218.44;10323011;28;20057;-62
2024/01/04 19:33:22;;;;;;;8.98;3.55;;;;;;;9.18;82.90;99218.16;10321736;28;20133;-63
2024/01/04 19:38:24;;;;;;;8.50;2.90;;;;;;;9.14;83.53;99206.16;10323819;28;20483;-65
2024/01/04 19:43:27;;;;;;;10.15;3.00;;;;;;;9.22;83.13;99223.19;10325495;28;20041;-63
2024/01/04 19:48:30;;;;;;;7.47;2.95;;;;;;;9.03;83.52;99203.63;10317644;28;20042;-63
2024/01/04 19:53:32;;;;;;;10.27;3.70;;;;;;;9.09;83.67;99205.72;10327479;28;20045;-63
2024/01/04 19:58:35;;;;;;;8.15;3.30;;;;;;;9.14;83.65;99210.63;10324058;28;20127;-63
2024/01/04 20:03:37;;;;;;;8.30;2.90;;;;;;;8.98;84.51;99197.91;10325983;28;20137;-62
2024/01/04 20:08:39;;;;;;;13.73;8.38;;;;;;;9.10;85.13;99199.44;10322178;28;20050;-64
2024/01/04 20:13:40;;;;;;;12.57;6.85;;;;;;;9.12;84.65;99213.41;10326055;28;20053;-63
2024/01/04 20:18:42;;;;;;;24.75;20.17;;;;;;;9.19;84.99;99219.84;10341500;28;20362;-64
2024/01/04 20:23:44;;;;;;;35.95;30.27;;;;;;;9.28;85.99;99212.84;10320601;28;20058;-64
2024/01/04 20:28:45;;;;;;;14.73;8.40;;;;;;;9.23;84.60;99187.69;10350362;28;20073;-62
2024/01/04 20:33:47;;;;;;;13.98;6.25;;;;;;;9.31;84.96;99203.78;10322772;28;20070;-63
2024/01/04 20:38:50;;;;;;;33.60;22.67;;;;;;;9.34;84.93;99195.53;10322362;28;20131;-63
2024/01/04 20:43:52;;;;;;;7.13;4.38;;;;;;;9.27;84.58;99186.44;10319792;28;20057;-64
2024/01/04 20:48:53;;;;;;;8.10;4.32;;;;;;;9.37;85.02;99188.09;10319262;28;20098;-63
2024/01/04 20:53:55;;;;;;;8.05;3.45;;;;;;;9.27;85.00;99168.69;10328316;28;20702;-64
2024/01/04 20:58:56;;;;;;;8.82;3.28;;;;;;;9.42;84.41;99178.88;10327323;28;20052;-64
2024/01/04 21:03:58;;;;;;;12.90;6.30;;;;;;;9.44;84.79;99168.94;10316813;28;20064;-64
2024/01/04 21:08:59;;;;;;;8.18;3.25;;;;;;;9.44;84.79;99164.44;10329625;28;20127;-64
2024/01/04 21:14:02;;;;;;;8.48;3.42;;;;;;;9.41;85.19;99167.41;10329490;28;20130;-63
2024/01/04 21:19:03;;;;;;;24.42;19.40;;;;;;;9.51;85.44;99170.06;10329790;28;20056;-62
2024/01/04 21:24:05;;;;;;;7.32;3.67;;;;;;;9.44;84.69;99161.78;10350496;28;20068;-62
2024/01/04 21:29:07;;;;;;;8.48;3.33;;;;;;;9.37;84.77;99144.78;10329020;28;20053;-63
2024/01/04 21:34:10;;;;;;;6.47;3.28;;;;;;;9.54;85.38;99167.94;10330453;28;20057;-63
2024/01/04 21:39:11;;;;;;;6.55;2.42;;;;;;;9.61;84.94;99159.38;10326820;28;20046;-64
2024/01/04 21:44:13;;;;;;;12.73;3.33;;;;;;;9.63;85.31;99165.41;10328765;28;20050;-63
2024/01/04 21:49:16;;;;;;;6.93;2.63;;;;;;;9.65;85.17;99151.00;10347325;28;20057;-64
2024/01/04 21:54:18;;;;;;;5.45;3.40;;;;;;;9.66;85.01;99142.03;10332982;28;20070;-62
2024/01/04 21:59:20;;;;;;;6.28;2.60;;;;;;;9.65;85.64;99150.16;10328891;28;20124;-63
2024/01/04 22:04:22;;;;;;;13.55;5.90;;;;;;;9.62;86.03;99151.25;10328022;28;20056;-62
2024/01/04 22:09:24;;;;;;;7.97;3.45;;;;;;;9.70;86.72;99155.88;10351199;28;20132;-63
2024/01/04 22:14:27;;;;;;;8.95;3.97;;;;;;;9.71;85.97;99146.91;10329020;28;20622;-63
2024/01/04 22:19:28;;;;;;;7.13;3.45;;;;;;;9.72;86.74;99148.59;10335024;28;20112;-62
2024/01/04 22:24:35;;;;;;;7.95;2.88;;;;;;;9.77;86.60;99154.28;10321992;28;20050;-64
2024/01/04 22:29:38;;;;;;;10.38;3.83;;;;;;;9.68;85.97;99139.22;10327330;28;20053;-63
2024/01/04 22:34:39;;;;;;;6.85;3.17;;;;;;;9.70;85.83;99134.63;10351597;28;20057;-63
2024/01/04 22:39:41;;;;;;;9.00;3.53;;;;;;;9.63;85.25;99144.16;10359065;28;20060;-63
2024/01/04 22:44:43;;;;;;;8.40;3.55;;;;;;;9.59;85.44;99130.31;10347705;28;20080;-63
2024/01/04 22:49:44;;;;;;;9.43;4.38;;;;;;;9.61;86.27;99116.88;10344154;28;20113;-63
2024/01/04 22:54:46;;;;;;;8.25;3.83;;;;;;;9.51;85.79;99123.06;10325512;28;20069;-63
2024/01/04 22:59:48;;;;;;;10.10;4.10;;;;;;;9.51;86.40;99106.28;10326551;28;20131;-62
2024/01/04 23:04:50;;;;;;;9.85;3.50;;;;;;;9.49;86.56;99097.63;10342956;28;20177;-65
2024/01/04 23:09:52;;;;;;;8.00;3.50;;;;;;;9.48;86.67;99091.47;10325334;28;20112;-63
2024/01/04 23:14:53;;;;;;;10.55;3.75;;;;;;;9.48;85.84;99091.47;10343573;28;20050;-64
2024/01/04 23:19:55;;;;;;;8.35;3.88;;;;;;;9.49;86.76;99082.53;10326495;28;20058;-63
2024/01/04 23:24:59;;;;;;;7.70;3.33;;;;;;;9.46;85.84;99076.69;10325436;28;20056;-63
2024/01/04 23:30:02;;;;;;;6.88;3.05;;;;;;;9.48;86.03;99067.56;10324921;28;20046;-63
2024/01/04 23:35:05;;;;;;;10.00;3.55;;;;;;;9.37;85.67;99059.78;10325614;28;20049;-63